ADDS METAR Data INFO
IDs: Format: Raw Decoded Include TAF

Data at: 0733 UTC 18 Oct 2017

KBAC 180715Z AUTO 19013G18KT 10SM CLR 13/04 A2964 RMK AO2
KBAC 180655Z AUTO 18011KT 10SM CLR 12/05 A2964 RMK AO2
KBAC 180635Z AUTO 18011KT 10SM CLR 13/05 A2964 RMK AO2
KBAC 180615Z AUTO 20013G19KT 10SM CLR 14/04 A2964 RMK AO2
KBAC 180555Z AUTO 20017G23KT 10SM CLR 15/04 A2964 RMK AO2
KBAC 180535Z AUTO 20020KT 10SM CLR 15/04 A2964 RMK AO2
KBAC 180515Z AUTO 21016KT 10SM CLR 14/04 A2966 RMK AO2
KBAC 180455Z AUTO 21017G22KT 10SM CLR 15/04 A2966 RMK AO2
KBAC 180435Z AUTO 21017G22KT 10SM CLR 15/04 A2967 RMK AO2
KBAC 180415Z AUTO 21015G21KT 10SM CLR 15/03 A2968 RMK AO2
KBAC 180355Z AUTO 21015G20KT 10SM CLR 14/03 A2969 RMK AO2
KBAC 180335Z AUTO 21016G22KT 10SM CLR 14/03 A2969 RMK AO2
KBAC 180315Z AUTO 21016KT 10SM CLR 15/02 A2969 RMK AO2
KBAC 180255Z AUTO 21017KT 10SM CLR 15/02 A2969 RMK AO2
KBAC 180235Z AUTO 21014KT 10SM CLR 15/02 A2970 RMK AO2
KBAC 180215Z AUTO 21015KT 10SM CLR 15/02 A2971 RMK AO2
KBAC 180155Z AUTO 21016KT 10SM CLR 15/02 A2971 RMK AO2
KBAC 180135Z AUTO 21009KT 10SM CLR 13/03 A2972 RMK AO2
KBAC 180115Z AUTO 20007KT 10SM CLR 13/02 A2972 RMK AO2
KBAC 180055Z AUTO 20008KT 10SM CLR 14/02 A2973 RMK AO2
KBAC 180035Z AUTO 21009KT 10SM CLR 15/02 A2973 RMK AO2
KBAC 180015Z AUTO 21010KT 10SM CLR 15/02 A2974 RMK AO2
KBAC 172355Z AUTO 21009KT 10SM CLR 16/02 A2974 RMK AO2
KBAC 172335Z AUTO 21009KT 10SM CLR 18/02 A2975 RMK AO2
KBAC 172315Z AUTO 22008KT 10SM CLR 20/02 A2975 RMK AO2
KBAC 172255Z AUTO 22009KT 10SM CLR 21/02 A2975 RMK AO2
KBAC 172235Z AUTO 23010KT 10SM CLR 23/01 A2976 RMK AO2
KBAC 172215Z AUTO 23010G16KT 10SM CLR 23/01 A2976 RMK AO2
KBAC 172155Z AUTO 23013G18KT 10SM CLR 24/01 A2977 RMK AO2
KBAC 172135Z AUTO 23014G19KT 10SM CLR 24/00 A2978 RMK AO2
KBAC 172115Z AUTO 23013G21KT 10SM CLR 25/01 A2978 RMK AO2
KBAC 172055Z AUTO 23017KT 10SM CLR 25/01 A2978 RMK AO2
KBAC 172035Z AUTO 25018KT 10SM CLR 25/01 A2979 RMK AO2
KBAC 172015Z AUTO 23015G20KT 10SM CLR 25/02 A2979 RMK AO2
KBAC 171955Z AUTO 24014KT 10SM CLR 25/02 A2980 RMK AO2
KBAC 171935Z AUTO 23013KT 10SM CLR 25/02 A2981 RMK AO2
KBAC 171915Z AUTO 22016G21KT 10SM CLR 24/02 A2982 RMK AO2
KBAC 171855Z AUTO 21015G20KT 10SM CLR 24/03 A2983 RMK AO2
KBAC 171835Z AUTO 23016G21KT 10SM CLR 23/03 A2984 RMK AO2
KBAC 171815Z AUTO 22016KT 10SM CLR 22/04 A2985 RMK AO2
KBAC 171755Z AUTO 22016G22KT 10SM CLR 21/04 A2986 RMK AO2
KBAC 171735Z AUTO 22016G22KT 10SM CLR 20/04 A2986 RMK AO2
KBAC 171715Z AUTO 22017G23KT 10SM CLR 20/03 A2987 RMK AO2
KBAC 171655Z AUTO 22017KT 10SM CLR 19/03 A2988 RMK AO2
KBAC 171635Z AUTO 21014KT 10SM CLR 18/03 A2989 RMK AO2
KBAC 171615Z AUTO 20011KT 10SM CLR 16/04 A2990 RMK AO2
KBAC 171555Z AUTO 20012KT 10SM CLR 14/04 A2991 RMK AO2
KBAC 171535Z AUTO 20011KT 10SM CLR 12/04 A2991 RMK AO2
KBAC 171515Z AUTO 19008KT 10SM CLR 11/04 A2992 RMK AO2
KBAC 171455Z AUTO 19006KT 10SM CLR 09/04 A2993 RMK AO2
KBAC 171435Z AUTO 18005KT 10SM CLR 06/04 A2993 RMK AO2
KBAC 171415Z AUTO 18005KT 10SM CLR 05/04 A2993 RMK AO2
KBAC 171355Z AUTO 18007KT 10SM CLR 03/03 A2993 RMK AO2
KBAC 171335Z AUTO 19007KT 10SM CLR 01/01 A2992 RMK AO2
KBAC 171315Z AUTO 19005KT 10SM CLR 00/00 A2993 RMK AO2
KBAC 171255Z AUTO 19005KT 10SM CLR M00/M00 A2994 RMK AO2
KBAC 171235Z AUTO 19005KT 10SM CLR 00/00 A2995 RMK AO2
KBAC 171215Z AUTO 17005KT 10SM CLR 01/01 A2995 RMK AO2
KBAC 171155Z AUTO 19005KT 10SM CLR 01/01 A2995 RMK AO2
KBAC 171135Z AUTO 19005KT 10SM CLR 02/02 A2996 RMK AO2
KBAC 171115Z AUTO 20006KT 10SM CLR 01/01 A2996 RMK AO2
KBAC 171055Z AUTO 19006KT 10SM CLR 01/01 A2996 RMK AO2
KBAC 171035Z AUTO 17003KT 10SM CLR 01/01 A2996 RMK AO2
KBAC 171015Z AUTO 18005KT 10SM CLR 01/01 A2996 RMK AO2
KBAC 170955Z AUTO 19005KT 10SM CLR 01/01 A2995 RMK AO2
KBAC 170935Z AUTO 17005KT 10SM CLR 02/02 A2995 RMK AO2
KBAC 170915Z AUTO 00000KT 10SM CLR 03/02 A2996 RMK AO2
KBAC 170855Z AUTO 19004KT 10SM CLR 03/02 A2996 RMK AO2
KBAC 170835Z AUTO 14003KT 10SM CLR 06/02 A2995 RMK AO2
KBAC 170815Z AUTO 27006KT 10SM CLR 06/02 A2995 RMK AO2
KBAC 170755Z AUTO 26006KT 10SM CLR 06/03 A2995 RMK AO2
KBAC 170735Z AUTO 00000KT 10SM CLR 06/03 A2995 RMK AO2
KBAC 170715Z AUTO 26004KT 10SM CLR 06/02 A2995 RMK AO2
KBAC 170655Z AUTO 00000KT 10SM CLR 06/02 A2995 RMK AO2
KBAC 170635Z AUTO 00000KT 10SM CLR 07/02 A2995 RMK AO2
KBAC 170615Z AUTO 30003KT 10SM CLR 08/02 A2995 RMK AO2
KBAC 170555Z AUTO 00000KT 10SM CLR 07/02 A2995 RMK AO2
KBAC 170535Z AUTO 00000KT 10SM CLR 08/01 A2995 RMK AO2
KBAC 170515Z AUTO 00000KT 10SM CLR 08/01 A2995 RMK AO2
KBAC 170455Z AUTO 23004KT 10SM CLR 08/01 A2995 RMK AO2
KBAC 170435Z AUTO 31004KT 10SM CLR 08/02 A2995 RMK AO2
KBAC 170415Z AUTO VRB03KT 10SM CLR 09/02 A2995 RMK AO2
KBAC 170355Z AUTO 29008KT 10SM CLR 09/02 A2995 RMK AO2
KBAC 170335Z AUTO 27011KT 10SM CLR 09/02 A2994 RMK AO2
KBAC 170315Z AUTO 29010KT 10SM CLR 09/01 A2994 RMK AO2
KBAC 170255Z AUTO 29010KT 10SM CLR 10/02 A2994 RMK AO2
KBAC 170235Z AUTO 28009KT 10SM CLR 10/02 A2993 RMK AO2
KBAC 170215Z AUTO 29008KT 10SM CLR 10/02 A2993 RMK AO2
KBAC 170155Z AUTO 29007KT 10SM CLR 10/02 A2993 RMK AO2
KBAC 170135Z AUTO 29007KT 10SM CLR 11/01 A2992 RMK AO2
KBAC 170115Z AUTO 28005KT 10SM CLR 10/01 A2992 RMK AO2
KBAC 170055Z AUTO 29007KT 10SM CLR 14/01 A2992 RMK AO2
KBAC 170035Z AUTO 29006KT 10SM CLR 14/01 A2992 RMK AO2
KBAC 170015Z AUTO 29007KT 10SM CLR 13/01 A2992 RMK AO2
KBAC 162355Z AUTO 30005KT 10SM CLR 15/01 A2991 RMK AO2
KBAC 162335Z AUTO 28007KT 10SM CLR 16/02 A2990 RMK AO2
KBAC 162315Z AUTO 29007KT 10SM CLR 17/02 A2990 RMK AO2
KBAC 162255Z AUTO 29012KT 10SM CLR 19/02 A2989 RMK AO2
KBAC 162235Z AUTO 25010KT 10SM CLR 20/03 A2989 RMK AO2
KBAC 162215Z AUTO 26012G20KT 10SM CLR 20/03 A2990 RMK AO2
KBAC 162155Z AUTO 27015G21KT 10SM CLR 21/03 A2990 RMK AO2
KBAC 162135Z AUTO 27019KT 10SM CLR 21/02 A2989 RMK AO2
KBAC 162115Z AUTO 28018G24KT 10SM CLR 21/02 A2989 RMK AO2
KBAC 162055Z AUTO 26016KT 10SM CLR 21/03 A2989 RMK AO2
KBAC 162035Z AUTO 27015KT 10SM CLR 21/03 A2989 RMK AO2
KBAC 162015Z AUTO 26019KT 10SM CLR 21/02 A2989 RMK AO2
KBAC 161955Z AUTO 25018KT 10SM CLR 21/03 A2989 RMK AO2
KBAC 161935Z AUTO 24014G25KT 10SM CLR 21/03 A2990 RMK AO2